Spirit Of Tokyo — MCAI2 — position and weather

sailwx.info

Track history (hours):
 
Tides and Currents Weather Stations Pressure Air Temp Water Temp Dewpoint Dewpoint Depression Visibility Wind Speed Wind Dir Waves Ship Positions

Spirit Of Tokyo

Last reported at 2018-Feb-21 11:30 UTC. Time now 2018-Feb-21 11:43 UTC.
Position N 39°54' W 075°08'.

Length 210 m; draft 8 m.

Type: Ship (hazmat cat A). MMSI: 232011803.

Date/timePositionNaut miles runAvg speedWind from/ knotsBaromVisibWave heightAir tempDewpointWater temp
2018-Feb-21 11:30N 39°54' W 075°08'1 2.4
2018-Feb-21 11:00N 39°53' W 075°09'4 7.9
2018-Feb-21 10:30N 39°52' W 075°13'510.3
2018-Feb-21 10:00N 39°51' W 075°20'5 9.9
2018-Feb-21 09:30N 39°48' W 075°25'611.0
2018-Feb-21 09:00N 39°44' W 075°30'612.2
2018-Feb-21 08:30N 39°38' W 075°34'611.3
2018-Feb-21 08:00N 39°33' W 075°32'713.3
2018-Feb-21 07:30N 39°26' W 075°32'816.2
2018-Feb-21 07:00N 39°20' W 075°25'815.3
2018-Feb-21 06:30N 39°14' W 075°19'612.9
2018-Feb-21 06:00N 39°09' W 075°15'815.2
2018-Feb-21 05:30N 39°02' W 075°10'815.2
2018-Feb-21 05:00N 38°55' W 075°06'611.1
2018-Feb-21 04:30N 38°50' W 075°03'4 8.1
2018-Feb-21 04:00N 38°47' W 075°01'  
2018-Feb-17 00:51N 09°30' W 079°51'515.7
2018-Feb-17 00:30N 09°26' W 079°53'4 7.5
2018-Feb-17 00:00N 09°22' W 079°53'0 0.6
2018-Feb-16 23:29N 09°22' W 079°53'0 0.0
2018-Feb-16 22:59N 09°22' W 079°53'0 0.0
2018-Feb-16 22:29N 09°22' W 079°53'0 0.0
2018-Feb-16 21:59N 09°22' W 079°53'0 0.0
2018-Feb-16 21:29N 09°22' W 079°53'0 0.0
2018-Feb-16 20:59N 09°22' W 079°53'0 0.0
2018-Feb-16 20:29N 09°22' W 079°53'0 0.0
2018-Feb-16 19:59N 09°22' W 079°53'0 0.0
2018-Feb-16 19:29N 09°22' W 079°53'0 0.0
2018-Feb-16 18:59N 09°22' W 079°53'0 0.0
2018-Feb-16 18:29N 09°22' W 079°53'0 0.0
2018-Feb-16 17:59N 09°22' W 079°53'0 0.0
2018-Feb-16 17:29N 09°22' W 079°53'0 0.0
2018-Feb-16 16:59N 09°22' W 079°53'0 0.0
2018-Feb-16 16:23N 09°22' W 079°53'0 0.0
2018-Feb-16 15:59N 09°22' W 079°53'0 0.0
2018-Feb-16 15:29N 09°22' W 079°53'0 0.0
2018-Feb-16 14:59N 09°22' W 079°53'0 0.0
2018-Feb-16 14:29N 09°22' W 079°53'0 0.0
2018-Feb-16 13:59N 09°22' W 079°53'0 0.0
2018-Feb-16 13:29N 09°22' W 079°53'0 0.0
2018-Feb-16 12:59N 09°22' W 079°53'0 0.0
2018-Feb-16 12:29N 09°22' W 079°53'0 0.0
2018-Feb-16 11:59N 09°22' W 079°53'0 0.0
2018-Feb-16 11:29N 09°22' W 079°53'0 0.0
2018-Feb-16 10:59N 09°22' W 079°53'0 0.1
2018-Feb-16 10:29N 09°22' W 079°53'0 0.1
2018-Feb-16 09:59N 09°22' W 079°53'0 0.0
2018-Feb-16 09:29N 09°22' W 079°53'0 0.0
2018-Feb-16 08:59N 09°22' W 079°53'0 0.0
2018-Feb-16 08:29N 09°22' W 079°53'0 0.0
2018-Feb-16 07:59N 09°22' W 079°53'0 0.0
2018-Feb-16 07:29N 09°22' W 079°53'0 0.0
2018-Feb-16 06:59N 09°22' W 079°53'0 0.0
2018-Feb-16 06:29N 09°22' W 079°53'0 0.0
2018-Feb-16 05:56N 09°22' W 079°53'0 0.0
2018-Feb-16 05:29N 09°22' W 079°53'0 0.0
2018-Feb-16 04:53N 09°22' W 079°53'0 0.0
2018-Feb-16 04:29N 09°22' W 079°53'0 0.0
2018-Feb-16 03:59N 09°22' W 079°53'0 0.0
2018-Feb-16 03:30N 09°22' W 079°53'1 1.6
2018-Feb-16 03:01N 09°22' W 079°54'5 9.5
2018-Feb-16 02:30N 09°27' W 079°54'2 3.1
2018-Feb-16 02:00N 09°28' W 079°55'1 1.6
2018-Feb-16 01:30N 09°29' W 079°55'1 2.0
2018-Feb-16 01:00N 09°30' W 079°54'  
2018-Feb-13 03:20N 26°05' W 079°24'617.7
2018-Feb-13 03:00N 26°11' W 079°23'32517.6
2018-Feb-12 08:33N 31°31' W 080°24'318.8
2018-Feb-12 08:23N 31°34' W 080°25'817.4
2018-Feb-12 07:54N 31°41' W 080°30'510.7
2018-Feb-12 07:25N 31°46' W 080°33'11 9.2
2018-Feb-12 06:15N 31°56' W 080°38'2 9.4
2018-Feb-12 06:00N 31°57' W 080°40'5 9.4
2018-Feb-12 05:30N 31°59' W 080°45'714.0
2018-Feb-12 05:00N 32°02' W 080°53'612.3
2018-Feb-12 04:30N 32°05' W 080°59'5 9.1
2018-Feb-12 04:00N 32°05' W 081°05'4 7.5
2018-Feb-12 03:30N 32°07' W 081°08'0 0.2
2018-Feb-12 02:58N 32°07' W 081°08'0 0.0
2018-Feb-12 02:15N 32°07' W 081°08'0 0.0
2018-Feb-12 01:57N 32°07' W 081°08'0 0.0
2018-Feb-12 01:27N 32°07' W 081°08'0 0.0
2018-Feb-12 00:57N 32°07' W 081°08'0 0.0
2018-Feb-12 00:28N 32°07' W 081°08'0 0.0
2018-Feb-11 23:57N 32°07' W 081°08'0 0.0
2018-Feb-11 23:27N 32°07' W 081°08'0 0.0
2018-Feb-11 22:51N 32°07' W 081°08'0 0.0
2018-Feb-11 22:27N 32°07' W 081°08'0 0.0
2018-Feb-11 21:57N 32°07' W 081°08'0 0.0
2018-Feb-11 21:28N 32°07' W 081°08'0 0.0
2018-Feb-11 20:58N 32°07' W 081°08'0 0.0
2018-Feb-11 20:27N 32°07' W 081°08'0 0.0
2018-Feb-11 19:57N 32°07' W 081°08'0 0.0
2018-Feb-11 19:27N 32°07' W 081°08'0 0.0
2018-Feb-11 18:51N 32°07' W 081°08'0 0.0
2018-Feb-11 18:31N 32°07' W 081°08'0 0.0
2018-Feb-11 17:55N 32°07' W 081°08'0 0.0
2018-Feb-11 17:25N 32°07' W 081°08'0 0.0
2018-Feb-11 17:01N 32°07' W 081°08'0 0.0
2018-Feb-11 16:31N 32°07' W 081°08'0 0.0
2018-Feb-11 15:55N 32°07' W 081°08'0 0.0
2018-Feb-11 15:30N 32°07' W 081°08'0 0.0
2018-Feb-11 15:00N 32°07' W 081°08'0 0.0
2018-Feb-11 14:31N 32°07' W 081°08'0 0.0
2018-Feb-11 13:55N 32°07' W 081°08'0 0.0
2018-Feb-11 13:25N 32°07' W 081°08'0 0.0
2018-Feb-11 12:55N 32°07' W 081°08'0 0.0
2018-Feb-11 12:31N 32°07' W 081°08'0 0.0
2018-Feb-11 12:00N 32°07' W 081°08'  
Track history (hours):
 
Tides and Currents Weather Stations Pressure Air Temp Water Temp Dewpoint Dewpoint Depression Visibility Wind Speed Wind Dir Waves Ship Positions

Spirit Of Tokyo

Last reported at 2018-Feb-21 11:30 UTC. Time now 2018-Feb-21 11:43 UTC.
Position N 39°54' W 075°08'.

Length 210 m; draft 8 m.

Type: Ship (hazmat cat A). MMSI: 232011803.

Date/timePositionNaut miles runAvg speedWind from/ knotsBaromVisibWave heightAir tempDewpointWater temp
2018-Feb-21 11:30N 39°54' W 075°08'1 2.4
2018-Feb-21 11:00N 39°53' W 075°09'4 7.9
2018-Feb-21 10:30N 39°52' W 075°13'510.3
2018-Feb-21 10:00N 39°51' W 075°20'5 9.9
2018-Feb-21 09:30N 39°48' W 075°25'611.0
2018-Feb-21 09:00N 39°44' W 075°30'612.2
2018-Feb-21 08:30N 39°38' W 075°34'611.3
2018-Feb-21 08:00N 39°33' W 075°32'713.3
2018-Feb-21 07:30N 39°26' W 075°32'816.2
2018-Feb-21 07:00N 39°20' W 075°25'815.3
2018-Feb-21 06:30N 39°14' W 075°19'612.9
2018-Feb-21 06:00N 39°09' W 075°15'815.2
2018-Feb-21 05:30N 39°02' W 075°10'815.2
2018-Feb-21 05:00N 38°55' W 075°06'611.1
2018-Feb-21 04:30N 38°50' W 075°03'4 8.1
2018-Feb-21 04:00N 38°47' W 075°01'  
2018-Feb-17 00:51N 09°30' W 079°51'515.7
2018-Feb-17 00:30N 09°26' W 079°53'4 7.5
2018-Feb-17 00:00N 09°22' W 079°53'0 0.6
2018-Feb-16 23:29N 09°22' W 079°53'0 0.0
2018-Feb-16 22:59N 09°22' W 079°53'0 0.0
2018-Feb-16 22:29N 09°22' W 079°53'0 0.0
2018-Feb-16 21:59N 09°22' W 079°53'0 0.0
2018-Feb-16 21:29N 09°22' W 079°53'0 0.0
2018-Feb-16 20:59N 09°22' W 079°53'0 0.0
2018-Feb-16 20:29N 09°22' W 079°53'0 0.0
2018-Feb-16 19:59N 09°22' W 079°53'0 0.0
2018-Feb-16 19:29N 09°22' W 079°53'0 0.0
2018-Feb-16 18:59N 09°22' W 079°53'0 0.0
2018-Feb-16 18:29N 09°22' W 079°53'0 0.0
2018-Feb-16 17:59N 09°22' W 079°53'0 0.0
2018-Feb-16 17:29N 09°22' W 079°53'0 0.0
2018-Feb-16 16:59N 09°22' W 079°53'0 0.0
2018-Feb-16 16:23N 09°22' W 079°53'0 0.0
2018-Feb-16 15:59N 09°22' W 079°53'0 0.0
2018-Feb-16 15:29N 09°22' W 079°53'0 0.0
2018-Feb-16 14:59N 09°22' W 079°53'0 0.0
2018-Feb-16 14:29N 09°22' W 079°53'0 0.0
2018-Feb-16 13:59N 09°22' W 079°53'0 0.0
2018-Feb-16 13:29N 09°22' W 079°53'0 0.0
2018-Feb-16 12:59N 09°22' W 079°53'0 0.0
2018-Feb-16 12:29N 09°22' W 079°53'0 0.0
2018-Feb-16 11:59N 09°22' W 079°53'0 0.0
2018-Feb-16 11:29N 09°22' W 079°53'0 0.0
2018-Feb-16 10:59N 09°22' W 079°53'0 0.1
2018-Feb-16 10:29N 09°22' W 079°53'0 0.1
2018-Feb-16 09:59N 09°22' W 079°53'0 0.0
2018-Feb-16 09:29N 09°22' W 079°53'0 0.0
2018-Feb-16 08:59N 09°22' W 079°53'0 0.0
2018-Feb-16 08:29N 09°22' W 079°53'0 0.0
2018-Feb-16 07:59N 09°22' W 079°53'0 0.0
2018-Feb-16 07:29N 09°22' W 079°53'0 0.0
2018-Feb-16 06:59N 09°22' W 079°53'0 0.0
2018-Feb-16 06:29N 09°22' W 079°53'0 0.0
2018-Feb-16 05:56N 09°22' W 079°53'0 0.0
2018-Feb-16 05:29N 09°22' W 079°53'0 0.0
2018-Feb-16 04:53N 09°22' W 079°53'0 0.0
2018-Feb-16 04:29N 09°22' W 079°53'0 0.0
2018-Feb-16 03:59N 09°22' W 079°53'0 0.0
2018-Feb-16 03:30N 09°22' W 079°53'1 1.6
2018-Feb-16 03:01N 09°22' W 079°54'5 9.5
2018-Feb-16 02:30N 09°27' W 079°54'2 3.1
2018-Feb-16 02:00N 09°28' W 079°55'1 1.6
2018-Feb-16 01:30N 09°29' W 079°55'1 2.0
2018-Feb-16 01:00N 09°30' W 079°54'  
2018-Feb-13 03:20N 26°05' W 079°24'617.7
2018-Feb-13 03:00N 26°11' W 079°23'32517.6
2018-Feb-12 08:33N 31°31' W 080°24'318.8
2018-Feb-12 08:23N 31°34' W 080°25'817.4
2018-Feb-12 07:54N 31°41' W 080°30'510.7
2018-Feb-12 07:25N 31°46' W 080°33'11 9.2
2018-Feb-12 06:15N 31°56' W 080°38'2 9.4
2018-Feb-12 06:00N 31°57' W 080°40'5 9.4
2018-Feb-12 05:30N 31°59' W 080°45'714.0
2018-Feb-12 05:00N 32°02' W 080°53'612.3
2018-Feb-12 04:30N 32°05' W 080°59'5 9.1
2018-Feb-12 04:00N 32°05' W 081°05'4 7.5
2018-Feb-12 03:30N 32°07' W 081°08'0 0.2
2018-Feb-12 02:58N 32°07' W 081°08'0 0.0
2018-Feb-12 02:15N 32°07' W 081°08'0 0.0
2018-Feb-12 01:57N 32°07' W 081°08'0 0.0
2018-Feb-12 01:27N 32°07' W 081°08'0 0.0
2018-Feb-12 00:57N 32°07' W 081°08'0 0.0
2018-Feb-12 00:28N 32°07' W 081°08'0 0.0
2018-Feb-11 23:57N 32°07' W 081°08'0 0.0
2018-Feb-11 23:27N 32°07' W 081°08'0 0.0
2018-Feb-11 22:51N 32°07' W 081°08'0 0.0
2018-Feb-11 22:27N 32°07' W 081°08'0 0.0
2018-Feb-11 21:57N 32°07' W 081°08'0 0.0
2018-Feb-11 21:28N 32°07' W 081°08'0 0.0
2018-Feb-11 20:58N 32°07' W 081°08'0 0.0
2018-Feb-11 20:27N 32°07' W 081°08'0 0.0
2018-Feb-11 19:57N 32°07' W 081°08'0 0.0
2018-Feb-11 19:27N 32°07' W 081°08'0 0.0
2018-Feb-11 18:51N 32°07' W 081°08'0 0.0
2018-Feb-11 18:31N 32°07' W 081°08'0 0.0
2018-Feb-11 17:55N 32°07' W 081°08'0 0.0
2018-Feb-11 17:25N 32°07' W 081°08'0 0.0
2018-Feb-11 17:01N 32°07' W 081°08'0 0.0
2018-Feb-11 16:31N 32°07' W 081°08'0 0.0
2018-Feb-11 15:55N 32°07' W 081°08'0 0.0
2018-Feb-11 15:30N 32°07' W 081°08'0 0.0
2018-Feb-11 15:00N 32°07' W 081°08'0 0.0
2018-Feb-11 14:31N 32°07' W 081°08'0 0.0
2018-Feb-11 13:55N 32°07' W 081°08'0 0.0
2018-Feb-11 13:25N 32°07' W 081°08'0 0.0
2018-Feb-11 12:55N 32°07' W 081°08'0 0.0
2018-Feb-11 12:31N 32°07' W 081°08'0 0.0
2018-Feb-11 12:00N 32°07' W 081°08'  

Dump ship's entire track history